sensor_id;sensor_type;location;lat;lon;timestamp;P1;durP1;ratioP1;P2;durP2;ratioP2
46597;SDS011;32318;48.858;8.252;2023-06-10T00:04:48;12.95;;;5.60;;
46597;SDS011;32318;48.858;8.252;2023-06-10T00:12:50;12.80;;;5.55;;
46597;SDS011;32318;48.858;8.252;2023-06-10T00:20:51;8.68;;;5.60;;
46597;SDS011;32318;48.858;8.252;2023-06-10T00:28:54;10.40;;;5.50;;
46597;SDS011;32318;48.858;8.252;2023-06-10T00:36:55;8.38;;;5.65;;
46597;SDS011;32318;48.858;8.252;2023-06-10T00:44:55;13.52;;;6.35;;
46597;SDS011;32318;48.858;8.252;2023-06-10T00:52:55;19.90;;;5.88;;
46597;SDS011;32318;48.858;8.252;2023-06-10T01:00:56;13.82;;;6.35;;
46597;SDS011;32318;48.858;8.252;2023-06-10T01:17:22;10.30;;;5.87;;
46597;SDS011;32318;48.858;8.252;2023-06-10T01:25:24;12.93;;;6.18;;
46597;SDS011;32318;48.858;8.252;2023-06-10T01:33:29;11.53;;;6.17;;
46597;SDS011;32318;48.858;8.252;2023-06-10T01:41:33;10.03;;;6.00;;
46597;SDS011;32318;48.858;8.252;2023-06-10T01:49:35;12.45;;;6.20;;
46597;SDS011;32318;48.858;8.252;2023-06-10T01:57:35;11.25;;;7.18;;
46597;SDS011;32318;48.858;8.252;2023-06-10T02:05:35;9.80;;;6.72;;
46597;SDS011;32318;48.858;8.252;2023-06-10T02:13:37;9.80;;;5.97;;
46597;SDS011;32318;48.858;8.252;2023-06-10T02:21:38;11.13;;;6.32;;
46597;SDS011;32318;48.858;8.252;2023-06-10T02:29:38;12.77;;;6.43;;
46597;SDS011;32318;48.858;8.252;2023-06-10T02:37:38;10.13;;;6.10;;
46597;SDS011;32318;48.858;8.252;2023-06-10T02:45:39;11.48;;;6.68;;
46597;SDS011;32318;48.858;8.252;2023-06-10T02:53:40;11.45;;;6.22;;
46597;SDS011;32318;48.858;8.252;2023-06-10T03:01:40;10.80;;;6.40;;
46597;SDS011;32318;48.858;8.252;2023-06-10T03:09:41;13.02;;;6.82;;
46597;SDS011;32318;48.858;8.252;2023-06-10T03:17:41;15.43;;;6.35;;
46597;SDS011;32318;48.858;8.252;2023-06-10T03:25:41;10.98;;;6.63;;
46597;SDS011;32318;48.858;8.252;2023-06-10T03:33:42;11.88;;;7.07;;
46597;SDS011;32318;48.858;8.252;2023-06-10T03:41:42;13.90;;;6.80;;
46597;SDS011;32318;48.858;8.252;2023-06-10T03:49:43;12.75;;;7.25;;
46597;SDS011;32318;48.858;8.252;2023-06-10T03:57:43;15.60;;;6.78;;
46597;SDS011;32318;48.858;8.252;2023-06-10T04:05:43;15.25;;;6.50;;
46597;SDS011;32318;48.858;8.252;2023-06-10T04:13:44;15.18;;;7.30;;
46597;SDS011;32318;48.858;8.252;2023-06-10T04:21:44;11.10;;;7.22;;
46597;SDS011;32318;48.858;8.252;2023-06-10T04:29:44;19.00;;;6.53;;
46597;SDS011;32318;48.858;8.252;2023-06-10T04:37:45;13.70;;;6.70;;
46597;SDS011;32318;48.858;8.252;2023-06-10T04:45:45;18.92;;;6.75;;
46597;SDS011;32318;48.858;8.252;2023-06-10T04:53:45;17.65;;;6.85;;
46597;SDS011;32318;48.858;8.252;2023-06-10T05:01:46;9.85;;;6.50;;
46597;SDS011;32318;48.858;8.252;2023-06-10T05:09:46;22.73;;;6.22;;
46597;SDS011;32318;48.858;8.252;2023-06-10T05:17:47;10.32;;;6.22;;
46597;SDS011;32318;48.858;8.252;2023-06-10T05:25:47;13.70;;;5.80;;
46597;SDS011;32318;48.858;8.252;2023-06-10T05:33:47;11.05;;;5.75;;
46597;SDS011;32318;48.858;8.252;2023-06-10T05:41:48;9.00;;;5.35;;
46597;SDS011;32318;48.858;8.252;2023-06-10T05:49:48;10.20;;;5.55;;
46597;SDS011;32318;48.858;8.252;2023-06-10T05:57:57;10.82;;;4.85;;
46597;SDS011;32318;48.858;8.252;2023-06-10T06:05:58;10.40;;;5.22;;
46597;SDS011;32318;48.858;8.252;2023-06-10T06:13:59;8.13;;;4.50;;
46597;SDS011;32318;48.858;8.252;2023-06-10T06:21:59;8.27;;;4.00;;
46597;SDS011;32318;48.858;8.252;2023-06-10T06:30:00;9.80;;;4.57;;
46597;SDS011;32318;48.858;8.252;2023-06-10T06:38:00;20.90;;;4.40;;
46597;SDS011;32318;48.858;8.252;2023-06-10T06:46:00;11.07;;;4.80;;
46597;SDS011;32318;48.858;8.252;2023-06-10T06:54:00;12.52;;;4.70;;
46597;SDS011;32318;48.858;8.252;2023-06-10T07:02:01;12.95;;;4.65;;
46597;SDS011;32318;48.858;8.252;2023-06-10T07:10:02;10.10;;;4.25;;
46597;SDS011;32318;48.858;8.252;2023-06-10T07:18:02;13.57;;;5.07;;
46597;SDS011;32318;48.858;8.252;2023-06-10T07:26:03;11.48;;;4.22;;
46597;SDS011;32318;48.858;8.252;2023-06-10T07:34:03;11.90;;;4.60;;
46597;SDS011;32318;48.858;8.252;2023-06-10T07:42:04;6.72;;;3.92;;
46597;SDS011;32318;48.858;8.252;2023-06-10T07:50:04;7.45;;;4.75;;
46597;SDS011;32318;48.858;8.252;2023-06-10T07:58:05;8.25;;;4.63;;
46597;SDS011;32318;48.858;8.252;2023-06-10T08:06:05;12.18;;;4.03;;
46597;SDS011;32318;48.858;8.252;2023-06-10T08:14:06;7.45;;;4.45;;
46597;SDS011;32318;48.858;8.252;2023-06-10T08:22:06;8.70;;;4.63;;
46597;SDS011;32318;48.858;8.252;2023-06-10T08:30:06;7.13;;;3.97;;
46597;SDS011;32318;48.858;8.252;2023-06-10T08:38:08;8.15;;;4.65;;
46597;SDS011;32318;48.858;8.252;2023-06-10T08:46:08;5.90;;;4.00;;
46597;SDS011;32318;48.858;8.252;2023-06-10T08:54:11;6.50;;;4.40;;
46597;SDS011;32318;48.858;8.252;2023-06-10T09:02:18;7.15;;;3.90;;
46597;SDS011;32318;48.858;8.252;2023-06-10T09:10:20;4.97;;;3.88;;
46597;SDS011;32318;48.858;8.252;2023-06-10T09:18:20;11.82;;;4.20;;
46597;SDS011;32318;48.858;8.252;2023-06-10T09:26:20;7.65;;;3.97;;
46597;SDS011;32318;48.858;8.252;2023-06-10T09:34:28;11.30;;;4.18;;
46597;SDS011;32318;48.858;8.252;2023-06-10T09:42:29;7.90;;;4.30;;
46597;SDS011;32318;48.858;8.252;2023-06-10T09:50:33;13.63;;;4.20;;
46597;SDS011;32318;48.858;8.252;2023-06-10T09:58:34;6.47;;;4.32;;
46597;SDS011;32318;48.858;8.252;2023-06-10T10:06:36;7.45;;;3.78;;
46597;SDS011;32318;48.858;8.252;2023-06-10T10:14:38;8.68;;;4.05;;
46597;SDS011;32318;48.858;8.252;2023-06-10T10:22:41;5.35;;;3.33;;
46597;SDS011;32318;48.858;8.252;2023-06-10T10:30:47;8.02;;;3.90;;
46597;SDS011;32318;48.858;8.252;2023-06-10T10:38:50;5.20;;;3.58;;
46597;SDS011;32318;48.858;8.252;2023-06-10T10:46:50;7.35;;;3.85;;
46597;SDS011;32318;48.858;8.252;2023-06-10T10:54:52;8.00;;;3.92;;
46597;SDS011;32318;48.858;8.252;2023-06-10T11:02:53;5.88;;;3.75;;
46597;SDS011;32318;48.858;8.252;2023-06-10T11:10:59;4.60;;;3.40;;
46597;SDS011;32318;48.858;8.252;2023-06-10T11:18:59;6.68;;;3.88;;
46597;SDS011;32318;48.858;8.252;2023-06-10T11:27:15;4.38;;;3.22;;
46597;SDS011;32318;48.858;8.252;2023-06-10T11:35:19;5.65;;;3.45;;
46597;SDS011;32318;48.858;8.252;2023-06-10T11:43:21;4.45;;;3.50;;
46597;SDS011;32318;48.858;8.252;2023-06-10T11:51:24;7.88;;;3.80;;
46597;SDS011;32318;48.858;8.252;2023-06-10T11:59:31;5.97;;;3.65;;
46597;SDS011;32318;48.858;8.252;2023-06-10T12:07:32;5.97;;;3.28;;
46597;SDS011;32318;48.858;8.252;2023-06-10T12:15:32;8.02;;;3.80;;
46597;SDS011;32318;48.858;8.252;2023-06-10T12:23:33;8.13;;;4.07;;
46597;SDS011;32318;48.858;8.252;2023-06-10T12:31:33;6.97;;;4.20;;
46597;SDS011;32318;48.858;8.252;2023-06-10T12:39:52;6.20;;;4.53;;
46597;SDS011;32318;48.858;8.252;2023-06-10T12:48:03;5.80;;;3.80;;
46597;SDS011;32318;48.858;8.252;2023-06-10T12:56:05;7.05;;;3.80;;
46597;SDS011;32318;48.858;8.252;2023-06-10T13:04:06;7.78;;;3.70;;
46597;SDS011;32318;48.858;8.252;2023-06-10T13:12:07;8.57;;;3.70;;
46597;SDS011;32318;48.858;8.252;2023-06-10T13:20:08;7.18;;;4.35;;
46597;SDS011;32318;48.858;8.252;2023-06-10T13:28:09;6.38;;;4.05;;
46597;SDS011;32318;48.858;8.252;2023-06-10T13:36:09;5.78;;;3.67;;
46597;SDS011;32318;48.858;8.252;2023-06-10T13:44:10;6.47;;;3.90;;
46597;SDS011;32318;48.858;8.252;2023-06-10T13:52:10;7.65;;;3.67;;
46597;SDS011;32318;48.858;8.252;2023-06-10T14:00:10;5.05;;;3.10;;
46597;SDS011;32318;48.858;8.252;2023-06-10T14:08:11;5.07;;;3.55;;
46597;SDS011;32318;48.858;8.252;2023-06-10T14:16:11;5.57;;;3.53;;
46597;SDS011;32318;48.858;8.252;2023-06-10T14:24:12;6.95;;;3.40;;
46597;SDS011;32318;48.858;8.252;2023-06-10T14:32:12;4.97;;;3.63;;
46597;SDS011;32318;48.858;8.252;2023-06-10T14:40:12;5.32;;;3.55;;
46597;SDS011;32318;48.858;8.252;2023-06-10T14:48:13;6.75;;;3.40;;
46597;SDS011;32318;48.858;8.252;2023-06-10T14:56:13;7.80;;;3.60;;
46597;SDS011;32318;48.858;8.252;2023-06-10T15:04:13;6.55;;;3.42;;
46597;SDS011;32318;48.858;8.252;2023-06-10T15:12:13;8.15;;;3.10;;
46597;SDS011;32318;48.858;8.252;2023-06-10T15:20:14;5.85;;;3.20;;
46597;SDS011;32318;48.858;8.252;2023-06-10T15:28:14;6.05;;;3.50;;
46597;SDS011;32318;48.858;8.252;2023-06-10T15:36:14;9.52;;;3.63;;
46597;SDS011;32318;48.858;8.252;2023-06-10T15:44:15;6.50;;;3.00;;
46597;SDS011;32318;48.858;8.252;2023-06-10T15:52:15;5.22;;;3.35;;
46597;SDS011;32318;48.858;8.252;2023-06-10T16:00:16;7.55;;;3.30;;
46597;SDS011;32318;48.858;8.252;2023-06-10T16:08:16;5.17;;;3.07;;
46597;SDS011;32318;48.858;8.252;2023-06-10T16:16:16;8.52;;;2.90;;
46597;SDS011;32318;48.858;8.252;2023-06-10T16:24:17;4.05;;;2.95;;
46597;SDS011;32318;48.858;8.252;2023-06-10T16:32:17;9.95;;;3.17;;
46597;SDS011;32318;48.858;8.252;2023-06-10T16:40:17;5.88;;;3.30;;
46597;SDS011;32318;48.858;8.252;2023-06-10T16:48:18;9.30;;;3.13;;
46597;SDS011;32318;48.858;8.252;2023-06-10T16:56:18;4.88;;;3.25;;
46597;SDS011;32318;48.858;8.252;2023-06-10T17:04:18;3.75;;;3.05;;
46597;SDS011;32318;48.858;8.252;2023-06-10T17:12:19;9.85;;;2.90;;
46597;SDS011;32318;48.858;8.252;2023-06-10T17:20:21;5.07;;;3.03;;
46597;SDS011;32318;48.858;8.252;2023-06-10T17:28:21;4.03;;;2.90;;
46597;SDS011;32318;48.858;8.252;2023-06-10T17:36:21;8.60;;;2.95;;
46597;SDS011;32318;48.858;8.252;2023-06-10T17:44:21;10.48;;;3.45;;
46597;SDS011;32318;48.858;8.252;2023-06-10T17:52:24;3.10;;;2.40;;
46597;SDS011;32318;48.858;8.252;2023-06-10T18:00:24;4.93;;;3.08;;
46597;SDS011;32318;48.858;8.252;2023-06-10T18:08:24;6.10;;;3.10;;
46597;SDS011;32318;48.858;8.252;2023-06-10T18:16:25;5.05;;;3.13;;
46597;SDS011;32318;48.858;8.252;2023-06-10T18:24:27;6.65;;;3.38;;
46597;SDS011;32318;48.858;8.252;2023-06-10T18:32:27;7.55;;;3.15;;
46597;SDS011;32318;48.858;8.252;2023-06-10T18:40:27;5.78;;;3.00;;
46597;SDS011;32318;48.858;8.252;2023-06-10T18:48:27;5.32;;;3.03;;
46597;SDS011;32318;48.858;8.252;2023-06-10T18:56:28;7.90;;;3.08;;
46597;SDS011;32318;48.858;8.252;2023-06-10T19:04:28;10.57;;;3.25;;
46597;SDS011;32318;48.858;8.252;2023-06-10T19:12:29;8.63;;;3.70;;
46597;SDS011;32318;48.858;8.252;2023-06-10T19:20:29;12.73;;;5.10;;
46597;SDS011;32318;48.858;8.252;2023-06-10T19:28:29;9.25;;;3.95;;
46597;SDS011;32318;48.858;8.252;2023-06-10T19:36:30;10.60;;;5.05;;
46597;SDS011;32318;48.858;8.252;2023-06-10T19:44:30;8.43;;;3.72;;
46597;SDS011;32318;48.858;8.252;2023-06-10T19:52:30;8.82;;;5.20;;
46597;SDS011;32318;48.858;8.252;2023-06-10T20:00:32;9.80;;;3.53;;
46597;SDS011;32318;48.858;8.252;2023-06-10T20:08:33;8.18;;;4.07;;
46597;SDS011;32318;48.858;8.252;2023-06-10T20:16:34;10.32;;;4.72;;
46597;SDS011;32318;48.858;8.252;2023-06-10T20:24:34;5.45;;;3.38;;
46597;SDS011;32318;48.858;8.252;2023-06-10T20:32:35;12.43;;;3.20;;
46597;SDS011;32318;48.858;8.252;2023-06-10T20:40:35;5.15;;;3.50;;
46597;SDS011;32318;48.858;8.252;2023-06-10T20:48:35;6.13;;;4.07;;
46597;SDS011;32318;48.858;8.252;2023-06-10T20:56:36;5.55;;;3.53;;
46597;SDS011;32318;48.858;8.252;2023-06-10T21:04:36;8.90;;;4.82;;
46597;SDS011;32318;48.858;8.252;2023-06-10T21:12:37;7.30;;;3.85;;
46597;SDS011;32318;48.858;8.252;2023-06-10T21:20:37;4.95;;;3.55;;
46597;SDS011;32318;48.858;8.252;2023-06-10T21:28:37;4.90;;;3.40;;
46597;SDS011;32318;48.858;8.252;2023-06-10T21:36:37;6.20;;;3.63;;
46597;SDS011;32318;48.858;8.252;2023-06-10T21:44:38;7.00;;;3.92;;
46597;SDS011;32318;48.858;8.252;2023-06-10T21:52:38;9.77;;;4.10;;
46597;SDS011;32318;48.858;8.252;2023-06-10T22:00:38;7.97;;;3.70;;
46597;SDS011;32318;48.858;8.252;2023-06-10T22:08:39;7.45;;;3.55;;
46597;SDS011;32318;48.858;8.252;2023-06-10T22:16:44;5.07;;;3.85;;
46597;SDS011;32318;48.858;8.252;2023-06-10T22:24:46;7.60;;;4.22;;
46597;SDS011;32318;48.858;8.252;2023-06-10T22:32:50;21.02;;;4.32;;
46597;SDS011;32318;48.858;8.252;2023-06-10T22:40:50;6.95;;;4.07;;
46597;SDS011;32318;48.858;8.252;2023-06-10T22:48:51;9.60;;;4.38;;
46597;SDS011;32318;48.858;8.252;2023-06-10T22:56:51;4.82;;;3.78;;
46597;SDS011;32318;48.858;8.252;2023-06-10T23:04:52;13.48;;;4.20;;
46597;SDS011;32318;48.858;8.252;2023-06-10T23:12:52;7.00;;;4.00;;
46597;SDS011;32318;48.858;8.252;2023-06-10T23:20:52;8.07;;;4.50;;
46597;SDS011;32318;48.858;8.252;2023-06-10T23:28:54;9.48;;;4.63;;
46597;SDS011;32318;48.858;8.252;2023-06-10T23:36:54;8.93;;;3.95;;
46597;SDS011;32318;48.858;8.252;2023-06-10T23:44:56;6.60;;;4.63;;
46597;SDS011;32318;48.858;8.252;2023-06-10T23:52:56;5.85;;;3.97;;
